Time;durP1;ratioP1;P1;durP2;ratioP2;P2;SDS_P1;SDS_P2;PMS_P1;PMS_P2;Temp;Humidity;BMP_temperature;BMP_pressure;BME280_temperature;BME280_humidity;BME280_pressure;Samples;Min_cycle;Max_cycle;Signal;HPM_P1;HPM_P2
2022/09/19 00:01:44;;;;;;;2.05;0.88;;;;;;;8.49;76.94;98809.58;1655351;86;21009;-84
2022/09/19 00:04:17;;;;;;;2.00;0.62;;;;;;;8.57;77.41;98812.00;1647855;85;20956;-84
2022/09/19 00:06:47;;;;;;;4.42;0.82;;;;;;;8.67;77.14;98815.25;1657039;86;21493;-86
2022/09/19 00:09:18;;;;;;;1.98;0.80;;;;;;;8.75;77.04;98816.81;1653463;85;20921;-86
2022/09/19 00:11:47;;;;;;;2.65;1.00;;;;;;;8.82;76.75;98821.41;1609326;89;21032;-85
2022/09/19 00:14:18;;;;;;;2.33;1.10;;;;;;;8.90;76.63;98827.72;1657015;86;20986;-87
2022/09/19 00:16:47;;;;;;;3.33;1.00;;;;;;;8.98;76.07;98824.95;1643712;87;20989;-85
2022/09/19 00:19:20;;;;;;;1.35;0.90;;;;;;;9.07;75.79;98819.11;1662845;86;21034;-88
2022/09/19 00:21:48;;;;;;;0.70;0.70;;;;;;;9.17;75.10;98822.31;1655992;85;20981;-84
2022/09/19 00:27:09;;;;;;;4.42;0.90;;;;;;;9.31;74.94;98815.50;1643656;86;21008;-85
2022/09/19 00:29:37;;;;;;;1.33;0.97;;;;;;;9.33;74.73;98810.70;1652718;86;21033;-87
2022/09/19 00:32:07;;;;;;;1.57;1.00;;;;;;;9.34;74.28;98803.31;1654479;86;21004;-86
2022/09/19 00:34:35;;;;;;;2.52;1.35;;;;;;;9.35;74.53;98806.33;1654353;85;20993;-84
2022/09/19 00:37:02;;;;;;;2.60;1.02;;;;;;;9.37;74.60;98801.11;1647050;87;21049;-86
2022/09/19 00:39:28;;;;;;;3.87;0.90;;;;;;;9.40;74.78;98802.31;1653494;85;20957;-86
2022/09/19 00:41:55;;;;;;;5.30;1.00;;;;;;;9.43;74.26;98800.08;1646679;86;21037;-86
2022/09/19 00:44:27;;;;;;;1.57;0.80;;;;;;;9.46;74.43;98799.56;1637018;87;20976;-86
2022/09/19 00:47:22;;;;;;;1.87;0.90;;;;;;;9.52;74.37;98798.10;1649391;86;21016;-86
2022/09/19 00:49:49;;;;;;;2.30;0.90;;;;;;;9.57;74.55;98805.80;1634456;87;20984;-86
2022/09/19 00:52:39;;;;;;;1.07;0.90;;;;;;;9.67;74.62;98812.87;1637490;87;21038;-86
2022/09/19 00:55:07;;;;;;;1.20;0.90;;;;;;;9.71;74.59;98815.37;1635607;87;20941;-84
2022/09/19 00:57:51;;;;;;;1.95;0.95;;;;;;;9.82;74.60;98807.28;1645660;85;21061;-85
2022/09/19 01:00:18;;;;;;;2.37;0.88;;;;;;;9.91;73.88;98819.19;1642004;87;20989;-85
2022/09/19 01:02:46;;;;;;;1.30;0.93;;;;;;;10.04;72.71;98819.23;1629749;87;21041;-88
2022/09/19 01:05:16;;;;;;;3.60;0.90;;;;;;;10.11;71.68;98815.59;1644063;86;21013;-85
2022/09/19 01:07:47;;;;;;;1.67;0.85;;;;;;;10.19;71.64;98824.93;1645967;87;21020;-83
2022/09/19 01:10:39;;;;;;;1.05;0.60;;;;;;;10.26;71.07;98827.29;1645903;87;20969;-85
2022/09/19 01:13:18;;;;;;;2.42;1.17;;;;;;;10.32;70.27;98829.74;1654097;85;20977;-82
2022/09/19 01:16:03;;;;;;;1.72;0.90;;;;;;;10.42;70.65;98831.63;1656599;86;21041;-83
2022/09/19 01:18:38;;;;;;;1.12;1.00;;;;;;;10.48;70.34;98815.02;1654268;85;21426;-85
2022/09/19 01:21:39;;;;;;;2.85;0.75;;;;;;;10.50;70.71;98823.20;1654474;87;20949;-83
2022/09/19 01:24:20;;;;;;;0.82;0.65;;;;;;;10.53;70.87;98820.48;1641411;87;21001;-83
2022/09/19 01:27:25;;;;;;;1.80;1.10;;;;;;;10.50;71.58;98815.40;1656642;84;21026;-87
2022/09/19 01:30:05;;;;;;;1.57;0.82;;;;;;;10.48;71.49;98820.22;1635895;87;21048;-83
2022/09/19 01:32:51;;;;;;;3.62;1.12;;;;;;;10.43;72.18;98816.45;1654838;87;21029;-86
2022/09/19 01:35:29;;;;;;;3.05;1.00;;;;;;;10.44;72.66;98817.30;1640718;86;20989;-82
2022/09/19 01:38:16;;;;;;;2.85;0.90;;;;;;;10.43;72.56;98825.55;1674266;86;20982;-84
2022/09/19 01:40:43;;;;;;;3.55;1.02;;;;;;;10.46;72.80;98818.95;1673816;86;20990;-85
2022/09/19 01:43:16;;;;;;;2.72;0.85;;;;;;;10.47;73.16;98814.63;1673998;85;21467;-82
2022/09/19 01:45:44;;;;;;;1.50;0.95;;;;;;;10.46;73.24;98821.55;1658650;86;21041;-84
2022/09/19 01:48:29;;;;;;;2.98;0.90;;;;;;;10.48;73.34;98813.72;1657879;86;21529;-86
2022/09/19 01:51:17;;;;;;;1.77;1.10;;;;;;;10.49;73.40;98809.78;1658928;86;20986;-82
2022/09/19 01:54:01;;;;;;;4.00;1.30;;;;;;;10.51;73.50;98804.09;1666425;86;21481;-85
2022/09/19 01:56:54;;;;;;;1.50;0.98;;;;;;;10.51;73.25;98801.95;1666992;84;21057;-89
2022/09/19 01:59:30;;;;;;;1.90;1.27;;;;;;;10.48;73.09;98797.67;1668418;86;20967;-85
2022/09/19 02:02:15;;;;;;;2.40;1.00;;;;;;;10.46;72.96;98793.42;1665215;86;21061;-85
2022/09/19 02:04:53;;;;;;;3.00;1.22;;;;;;;10.42;72.82;98800.45;1663040;86;20982;-86
2022/09/19 02:07:27;;;;;;;2.10;1.05;;;;;;;10.41;72.65;98797.92;1660296;86;21051;-88
2022/09/19 02:10:02;;;;;;;1.55;0.80;;;;;;;10.37;72.78;98793.70;1671293;86;21489;-87
2022/09/19 02:12:35;;;;;;;3.85;1.10;;;;;;;10.34;72.93;98799.40;1672466;86;21010;-83
2022/09/19 02:15:07;;;;;;;1.52;0.93;;;;;;;10.34;72.26;98806.32;1672723;86;20982;-86
2022/09/19 02:17:52;;;;;;;1.85;1.15;;;;;;;10.28;72.77;98796.91;1671725;86;21006;-83
2022/09/19 02:20:31;;;;;;;1.82;1.20;;;;;;;10.28;72.97;98805.17;1638555;86;21002;-81
2022/09/19 02:23:06;;;;;;;3.15;1.35;;;;;;;10.24;72.46;98800.50;1660386;86;21014;-89
2022/09/19 02:25:34;;;;;;;1.87;1.00;;;;;;;10.18;73.10;98795.94;1657862;86;21437;-87
2022/09/19 02:28:13;;;;;;;1.70;1.00;;;;;;;10.16;72.41;98803.77;1669651;86;21482;-87
2022/09/19 02:30:42;;;;;;;2.22;1.07;;;;;;;10.12;73.29;98797.80;1674244;86;21001;-84
2022/09/19 02:33:11;;;;;;;2.40;1.17;;;;;;;10.10;72.88;98794.84;1669844;86;21010;-84
2022/09/19 02:35:52;;;;;;;4.05;1.65;;;;;;;10.08;73.33;98794.88;1657750;85;20965;-83
2022/09/19 02:38:29;;;;;;;5.72;2.80;;;;;;;10.07;72.75;98794.50;1652302;85;21053;-85
2022/09/19 02:41:13;;;;;;;5.53;1.62;;;;;;;10.04;73.50;98805.41;1672679;86;20975;-86
2022/09/19 02:43:46;;;;;;;11.40;3.50;;;;;;;10.03;73.35;98792.03;1666147;86;21014;-85
2022/09/19 02:46:30;;;;;;;5.87;2.67;;;;;;;10.03;73.47;98798.07;1673985;86;21026;-85
2022/09/19 02:49:02;;;;;;;4.47;1.45;;;;;;;10.06;73.43;98804.47;1642327;86;21009;-87
2022/09/19 02:51:36;;;;;;;2.25;1.07;;;;;;;10.11;73.73;98807.80;1656277;86;20982;-87
2022/09/19 02:54:16;;;;;;;3.67;1.90;;;;;;;10.11;73.76;98805.66;1665794;86;21002;-82
2022/09/19 02:56:44;;;;;;;4.95;2.30;;;;;;;10.14;73.92;98799.91;1674086;84;21038;-85
2022/09/19 02:59:21;;;;;;;2.55;1.15;;;;;;;10.18;74.17;98806.33;1657772;86;20981;-88
2022/09/19 03:02:00;;;;;;;9.25;1.80;;;;;;;10.18;74.03;98795.48;1673450;85;21022;-86
2022/09/19 03:04:40;;;;;;;3.50;2.10;;;;;;;10.16;74.23;98802.01;1670680;85;20974;-83
2022/09/19 03:07:22;;;;;;;3.10;1.70;;;;;;;10.18;74.13;98794.64;1673899;85;21006;-83
2022/09/19 03:10:07;;;;;;;3.70;1.95;;;;;;;10.19;73.72;98802.39;1661983;85;21021;-83
2022/09/19 03:12:52;;;;;;;7.58;1.92;;;;;;;10.12;74.09;98797.80;1662793;86;21014;-82
2022/09/19 03:15:47;;;;;;;2.22;1.60;;;;;;;10.10;73.39;98793.09;1658091;86;21026;-85
2022/09/19 03:18:17;;;;;;;5.58;1.40;;;;;;;10.05;73.89;98796.28;1668584;86;20998;-82
2022/09/19 03:21:02;;;;;;;4.15;1.50;;;;;;;10.00;74.08;98799.90;1658509;86;20986;-87
2022/09/19 03:23:37;;;;;;;9.60;3.60;;;;;;;9.97;74.55;98790.45;1656781;86;21005;-82
2022/09/19 03:26:08;;;;;;;2.67;2.00;;;;;;;9.91;74.07;98783.67;1657878;86;20980;-85
2022/09/19 03:28:35;;;;;;;2.55;1.30;;;;;;;9.87;74.05;98795.50;1658747;86;21494;-83
2022/09/19 03:31:02;;;;;;;3.60;1.25;;;;;;;9.81;74.33;98793.91;1654737;86;21010;-88
2022/09/19 03:33:30;;;;;;;3.35;1.42;;;;;;;9.75;74.84;98799.27;1663422;86;21506;-84
2022/09/19 03:36:02;;;;;;;1.87;1.15;;;;;;;9.70;74.94;98801.12;1667973;85;20998;-87
2022/09/19 03:38:27;;;;;;;2.75;1.20;;;;;;;9.64;74.89;98802.13;1675812;85;20974;-87
2022/09/19 03:40:55;;;;;;;4.60;1.40;;;;;;;9.61;76.40;98797.03;1668143;86;20970;-87
2022/09/19 03:43:22;;;;;;;1.77;1.12;;;;;;;9.61;74.61;98792.27;1654834;85;21000;-85
2022/09/19 03:45:49;;;;;;;6.33;1.30;;;;;;;9.58;75.10;98780.69;1671914;86;20931;-86
2022/09/19 03:48:16;;;;;;;2.67;1.02;;;;;;;9.55;75.69;98777.73;1669422;86;21006;-86
2022/09/19 03:50:42;;;;;;;2.35;1.35;;;;;;;9.52;75.66;98777.80;1657912;85;21027;-88
2022/09/19 03:53:11;;;;;;;3.75;1.50;;;;;;;9.52;75.74;98775.20;1659975;86;21025;-88
2022/09/19 03:55:40;;;;;;;2.22;1.30;;;;;;;9.51;75.77;98767.88;1657746;85;20979;-87
2022/09/19 03:58:12;;;;;;;6.87;1.10;;;;;;;9.52;76.28;98765.66;1634718;87;21008;-89
2022/09/19 04:00:39;;;;;;;2.22;1.10;;;;;;;9.51;76.24;98769.17;1662871;86;21020;-88
2022/09/19 04:03:06;;;;;;;4.65;1.52;;;;;;;9.52;76.24;98755.28;1616353;87;21028;-86
2022/09/19 04:05:33;;;;;;;4.72;1.30;;;;;;;9.52;75.92;98752.69;1642399;87;21518;-84
2022/09/19 04:08:01;;;;;;;1.82;1.02;;;;;;;9.54;75.96;98747.47;1664006;85;20990;-84
2022/09/19 04:10:28;;;;;;;2.95;1.47;;;;;;;9.51;76.00;98756.20;1663026;86;21060;-88
2022/09/19 04:12:56;;;;;;;4.40;1.35;;;;;;;9.47;75.93;98764.95;1626872;86;20955;-87
2022/09/19 04:15:24;;;;;;;4.28;1.42;;;;;;;9.44;76.48;98765.02;1653598;86;21014;-86
2022/09/19 04:17:51;;;;;;;3.08;1.30;;;;;;;9.42;75.89;98768.09;1652062;85;21470;-86
2022/09/19 04:20:18;;;;;;;4.72;1.42;;;;;;;9.42;75.73;98767.25;1662569;86;20994;-86
2022/09/19 04:23:05;;;;;;;3.72;1.40;;;;;;;9.37;75.76;98768.67;1622575;87;21088;-84
2022/09/19 04:25:36;;;;;;;3.33;1.22;;;;;;;9.34;75.33;98765.69;1607513;89;21101;-85
2022/09/19 04:28:08;;;;;;;4.22;1.65;;;;;;;9.32;76.39;98774.41;1626987;86;20972;-85
2022/09/19 04:30:38;;;;;;;1.92;1.40;;;;;;;9.30;76.33;98776.20;1666557;85;21010;-85
2022/09/19 04:33:07;;;;;;;2.58;1.12;;;;;;;9.29;76.07;98771.88;1655137;85;20968;-88
2022/09/19 04:35:36;;;;;;;4.83;1.47;;;;;;;9.30;76.66;98780.93;1625525;87;21087;-88
2022/09/19 04:38:13;;;;;;;4.05;1.57;;;;;;;9.32;76.48;98779.15;1637801;86;21494;-87
2022/09/19 04:40:44;;;;;;;4.40;1.20;;;;;;;9.35;77.17;98779.51;1661939;86;21029;-85
2022/09/19 04:43:16;;;;;;;2.85;1.30;;;;;;;9.40;77.33;98780.71;1673537;86;20981;-87
2022/09/19 04:45:48;;;;;;;3.98;1.30;;;;;;;9.44;77.30;98783.63;1662754;85;21030;-85
2022/09/19 04:48:25;;;;;;;3.40;1.40;;;;;;;9.48;77.22;98783.50;1670810;85;21009;-86
2022/09/19 04:50:53;;;;;;;3.33;1.47;;;;;;;9.51;77.14;98783.44;1663467;86;21486;-87
2022/09/19 04:53:23;;;;;;;8.35;2.00;;;;;;;9.53;77.48;98781.66;1671816;86;21018;-88
2022/09/19 04:55:54;;;;;;;5.17;1.72;;;;;;;9.55;77.33;98786.36;1661500;84;21047;-87
2022/09/19 04:58:22;;;;;;;7.03;1.95;;;;;;;9.57;77.65;98794.12;1657574;86;20965;-86
2022/09/19 05:00:54;;;;;;;7.10;1.87;;;;;;;9.57;77.41;98790.22;1616045;88;21028;-88
2022/09/19 05:03:25;;;;;;;8.38;2.17;;;;;;;9.57;77.10;98801.91;1626244;87;21054;-87
2022/09/19 05:05:55;;;;;;;8.20;1.90;;;;;;;9.61;77.68;98807.41;1640646;85;20972;-88
2022/09/19 05:08:30;;;;;;;3.12;1.55;;;;;;;9.63;76.78;98800.44;1656548;86;21025;-85
2022/09/19 05:11:02;;;;;;;3.37;1.42;;;;;;;9.63;77.21;98806.93;1657391;85;20997;-89
2022/09/19 05:13:33;;;;;;;5.83;1.30;;;;;;;9.61;76.42;98804.82;1672449;86;20998;-88
2022/09/19 05:16:01;;;;;;;7.37;1.72;;;;;;;9.58;77.11;98808.78;1671887;86;20987;-86
2022/09/19 05:18:35;;;;;;;2.40;1.20;;;;;;;9.58;76.38;98804.88;1673054;85;21050;-87
2022/09/19 05:21:08;;;;;;;5.60;1.30;;;;;;;9.58;76.79;98802.29;1654875;86;20999;-88
2022/09/19 05:23:37;;;;;;;2.25;1.25;;;;;;;9.63;77.07;98810.83;1656566;86;20950;-83
2022/09/19 05:26:16;;;;;;;1.65;1.05;;;;;;;9.67;77.23;98812.87;1616309;87;21020;-86
2022/09/19 05:28:45;;;;;;;2.35;1.40;;;;;;;9.73;77.08;98816.17;1629378;87;21059;-89
2022/09/19 05:31:16;;;;;;;2.10;1.32;;;;;;;9.78;77.09;98818.64;1651608;86;21015;-88
2022/09/19 05:33:44;;;;;;;8.15;2.12;;;;;;;9.86;76.93;98827.53;1623993;88;21008;-87
2022/09/19 05:36:13;;;;;;;5.08;2.10;;;;;;;9.90;76.82;98822.66;1634728;86;21011;-84
2022/09/19 05:38:43;;;;;;;8.23;2.60;;;;;;;9.92;76.62;98826.06;1630352;87;21041;-84
2022/09/19 05:41:17;;;;;;;2.80;1.57;;;;;;;9.98;76.38;98830.25;1612412;87;21025;-86
2022/09/19 05:43:45;;;;;;;4.87;1.50;;;;;;;9.98;76.14;98831.09;1641097;87;21033;-85
2022/09/19 05:46:12;;;;;;;4.40;1.90;;;;;;;10.02;75.86;98837.06;1634465;86;20989;-83
2022/09/19 05:48:40;;;;;;;4.17;1.70;;;;;;;10.06;75.89;98838.23;1635668;86;20996;-85
2022/09/19 05:51:09;;;;;;;3.47;1.70;;;;;;;10.11;75.72;98832.94;1640209;86;21022;-86
2022/09/19 05:53:56;;;;;;;3.12;1.40;;;;;;;10.15;76.11;98841.89;1599093;88;21012;-86
2022/09/19 05:56:40;;;;;;;;;;;;;;;10.21;75.98;98840.03;1635220;86;21102;-84
2022/09/19 05:59:09;;;;;;;6.12;1.70;;;;;;;10.25;76.15;98842.94;1644433;86;20105;-89
2022/09/19 06:01:37;;;;;;;3.95;1.50;;;;;;;10.25;75.92;98837.29;1632107;86;21006;-82
2022/09/19 06:04:04;;;;;;;4.47;1.32;;;;;;;10.31;75.36;98841.50;1641348;86;21534;-80
2022/09/19 06:06:36;;;;;;;2.87;1.35;;;;;;;10.34;74.96;98838.38;1630215;86;21119;-84
2022/09/19 06:09:03;;;;;;;3.12;1.35;;;;;;;10.32;75.43;98841.44;1643364;86;20982;-81
2022/09/19 06:11:32;;;;;;;5.85;1.52;;;;;;;10.39;75.73;98843.89;1631554;86;21078;-83
2022/09/19 06:14:13;;;;;;;4.87;1.90;;;;;;;10.42;75.67;98840.73;1641616;86;20987;-85
2022/09/19 06:16:42;;;;;;;3.80;1.40;;;;;;;10.48;75.92;98834.51;1628274;86;20971;-83
2022/09/19 06:19:21;;;;;;;4.35;1.77;;;;;;;10.50;75.74;98837.49;1641432;86;21162;-80
2022/09/19 06:21:57;;;;;;;6.70;1.75;;;;;;;10.49;76.00;98841.42;1397142;86;10000503;-81
2022/09/19 06:24:25;;;;;;;4.62;1.37;;;;;;;10.48;75.93;98839.70;1640568;86;21588;-82
2022/09/19 06:26:55;;;;;;;10.72;1.45;;;;;;;10.51;75.83;98837.88;1640177;86;21022;-84
2022/09/19 06:29:24;;;;;;;4.67;1.55;;;;;;;10.42;76.25;98836.83;1637712;86;20998;-83
2022/09/19 06:31:53;;;;;;;4.00;1.42;;;;;;;10.43;75.53;98842.45;1629916;86;21111;-82
2022/09/19 06:34:21;;;;;;;5.10;1.60;;;;;;;10.34;76.12;98842.27;1643851;87;21573;-82
2022/09/19 06:36:48;;;;;;;8.78;1.65;;;;;;;10.33;76.42;98846.20;1656503;85;21026;-82
2022/09/19 06:39:15;;;;;;;3.70;1.65;;;;;;;10.29;77.19;98835.47;1628536;87;21056;-80
2022/09/19 06:41:46;;;;;;;4.62;1.15;;;;;;;10.30;76.90;98835.89;1630734;85;21031;-82
2022/09/19 06:44:14;;;;;;;8.63;1.50;;;;;;;10.36;77.21;98839.61;1671292;84;20962;-79
2022/09/19 06:47:00;;;;;;;4.62;1.50;;;;;;;10.42;76.94;98835.98;1668131;83;21053;-81
2022/09/19 06:49:35;;;;;;;2.42;1.47;;;;;;;10.41;77.33;98842.94;1657429;85;21002;-84
2022/09/19 06:52:06;;;;;;;2.98;1.30;;;;;;;10.39;77.44;98843.44;1661257;84;21121;-81
2022/09/19 06:54:33;;;;;;;3.60;1.80;;;;;;;10.46;76.91;98839.75;1662729;85;21026;-84
2022/09/19 06:57:00;;;;;;;5.45;1.57;;;;;;;10.48;77.09;98841.01;1661745;86;21071;-83
2022/09/19 06:59:27;;;;;;;5.65;1.90;;;;;;;10.48;76.67;98851.41;1665455;84;21042;-82
2022/09/19 07:01:54;;;;;;;13.98;1.80;;;;;;;10.50;76.92;98854.39;1663277;86;21012;-80
2022/09/19 07:04:21;;;;;;;2.60;1.27;;;;;;;10.55;76.55;98858.98;1668706;84;21114;-83
2022/09/19 07:06:56;;;;;;;5.22;1.72;;;;;;;10.63;76.64;98850.97;1669707;85;21513;-86
2022/09/19 07:09:24;;;;;;;3.05;1.32;;;;;;;10.71;76.51;98852.05;1663392;86;20998;-87
2022/09/19 07:11:56;;;;;;;2.92;1.45;;;;;;;10.78;76.65;98856.61;1658459;84;20990;-82
2022/09/19 07:14:25;;;;;;;3.33;1.40;;;;;;;10.85;76.23;98848.58;1670987;84;21041;-83
2022/09/19 07:16:52;;;;;;;3.50;1.50;;;;;;;10.97;76.33;98849.12;1669543;86;21458;-81
2022/09/19 07:19:20;;;;;;;3.72;1.80;;;;;;;11.06;75.89;98839.70;1664609;86;21483;-79
2022/09/19 07:21:53;;;;;;;7.50;2.33;;;;;;;11.09;75.35;98835.73;1661267;86;21006;-81
2022/09/19 07:24:22;;;;;;;6.20;1.55;;;;;;;11.16;75.19;98828.14;1662559;85;21009;-81
2022/09/19 07:26:50;;;;;;;2.77;1.42;;;;;;;11.18;74.90;98829.37;1665331;84;21026;-83
2022/09/19 07:29:18;;;;;;;7.22;1.65;;;;;;;11.22;74.83;98843.55;1663101;85;20955;-84
2022/09/19 07:31:46;;;;;;;2.90;1.20;;;;;;;11.28;74.68;98844.66;1669727;84;21025;-84
2022/09/19 07:34:14;;;;;;;2.67;1.30;;;;;;;11.35;74.61;98842.70;1660431;86;22063;-78
2022/09/19 07:36:46;;;;;;;9.20;1.62;;;;;;;11.46;74.49;98839.31;1669316;84;21088;-82
2022/09/19 07:39:12;;;;;;;2.25;1.10;;;;;;;11.57;74.55;98836.80;1656359;86;21525;-82
2022/09/19 07:41:41;;;;;;;3.00;1.10;;;;;;;11.74;74.66;98828.81;1621114;86;20963;-82
2022/09/19 07:44:22;;;;;;;3.83;1.10;;;;;;;11.92;73.66;98835.18;1662363;85;20994;-86
2022/09/19 07:49:57;;;;;;;4.00;1.20;;;;;;;12.32;71.67;98826.41;1669547;86;20155;-83
2022/09/19 07:52:28;;;;;;;2.52;1.15;;;;;;;12.54;71.86;98819.47;1669722;86;21089;-84
2022/09/19 07:54:55;;;;;;;3.30;1.20;;;;;;;12.75;70.31;98819.56;1669753;84;21502;-79
2022/09/19 07:57:22;;;;;;;2.70;1.00;;;;;;;12.96;70.24;98823.58;1674584;85;21002;-79
2022/09/19 07:59:49;;;;;;;3.90;1.10;;;;;;;13.12;67.83;98830.72;1667435;84;20978;-81
2022/09/19 08:02:16;;;;;;;3.45;1.20;;;;;;;13.33;67.79;98834.28;1671604;85;21054;-82
2022/09/19 08:04:45;;;;;;;2.80;1.00;;;;;;;13.60;68.36;98829.29;1672514;86;21446;-80
2022/09/19 08:07:12;;;;;;;5.05;1.20;;;;;;;13.79;66.77;98836.75;1665078;86;21491;-81
2022/09/19 08:09:40;;;;;;;3.60;1.15;;;;;;;13.93;66.40;98834.39;1666010;85;21050;-83
2022/09/19 08:12:12;;;;;;;2.87;1.10;;;;;;;14.08;67.01;98820.27;1664698;86;21115;-82
2022/09/19 08:14:41;;;;;;;1.22;0.88;;;;;;;14.17;64.26;98829.48;1665204;86;21660;-81
2022/09/19 08:17:09;;;;;;;2.87;0.98;;;;;;;14.26;65.02;98829.90;1668336;86;21054;-80
2022/09/19 08:19:36;;;;;;;2.98;1.37;;;;;;;14.27;64.89;98820.31;1668905;84;20978;-81
2022/09/19 08:22:03;;;;;;;4.97;1.37;;;;;;;14.34;64.37;98829.56;1675004;85;21474;-77
2022/09/19 08:24:31;;;;;;;3.22;0.90;;;;;;;14.35;64.93;98825.20;1660954;85;21062;-81
2022/09/19 08:27:00;;;;;;;2.25;1.00;;;;;;;14.41;63.85;98830.16;1669586;85;21578;-84
2022/09/19 08:29:27;;;;;;;1.30;0.90;;;;;;;14.47;63.45;98819.42;1663917;86;21058;-78
2022/09/19 08:31:56;;;;;;;6.03;1.07;;;;;;;14.55;63.02;98808.14;1667268;85;20998;-81
2022/09/19 08:34:23;;;;;;;2.85;1.10;;;;;;;14.63;60.90;98810.44;1661621;86;20981;-79
2022/09/19 08:36:53;;;;;;;1.85;1.15;;;;;;;14.73;61.73;98808.25;1670368;84;21112;-79
2022/09/19 08:39:21;;;;;;;2.05;1.00;;;;;;;14.76;60.69;98802.39;1663864;85;21046;-79
2022/09/19 08:42:02;;;;;;;5.58;1.07;;;;;;;14.82;61.04;98803.87;1673172;84;21458;-80
2022/09/19 08:45:02;;;;;;;2.67;1.15;;;;;;;14.77;60.23;98808.02;1634843;86;20952;-82
2022/09/19 08:47:32;;;;;;;2.17;1.10;;;;;;;14.81;60.32;98809.58;1617603;86;21019;-78
2022/09/19 08:50:15;;;;;;;4.47;1.20;;;;;;;14.76;60.58;98815.47;1674696;84;21542;-82
2022/09/19 08:52:52;;;;;;;3.17;1.10;;;;;;;14.78;59.02;98816.28;1650116;86;21025;-80
2022/09/19 08:55:26;;;;;;;2.92;1.27;;;;;;;14.78;60.18;98809.73;1662226;86;21005;-78
2022/09/19 08:57:58;;;;;;;2.98;1.22;;;;;;;14.81;59.68;98806.95;1673767;84;21529;-77
2022/09/19 09:00:31;;;;;;;1.82;1.15;;;;;;;14.94;60.60;98802.45;1665699;86;20980;-78
2022/09/19 09:03:02;;;;;;;;;;;;;;;15.09;61.08;98797.80;1665393;86;21010;-77
2022/09/19 09:05:59;;;;;;;1.92;1.20;;;;;;;15.25;58.54;98801.36;1669764;86;20501;-81
2022/09/19 09:08:40;;;;;;;2.15;0.90;;;;;;;15.43;60.39;98800.91;1668193;86;20987;-80
2022/09/19 09:11:53;;;;;;;2.08;1.00;;;;;;;15.55;58.67;98803.38;1661357;86;21037;-77
2022/09/19 09:14:41;;;;;;;1.77;1.05;;;;;;;15.56;57.45;98808.16;1664618;84;21006;-79
2022/09/19 09:17:48;;;;;;;0.95;0.80;;;;;;;15.58;57.68;98802.38;1666814;84;21049;-80
2022/09/19 09:20:36;;;;;;;3.17;0.98;;;;;;;15.54;55.63;98796.91;1673419;84;20990;-79
2022/09/19 09:23:28;;;;;;;2.77;1.20;;;;;;;15.58;57.25;98794.08;1669521;84;20982;-80
2022/09/19 09:26:06;;;;;;;2.42;0.80;;;;;;;15.53;56.72;98797.84;1648913;84;21537;-81
2022/09/19 09:28:56;;;;;;;3.45;1.00;;;;;;;15.38;55.26;98796.38;1670677;84;21018;-82
2022/09/19 09:31:41;;;;;;;4.75;0.98;;;;;;;15.40;57.04;98800.20;1669084;84;20997;-80
2022/09/19 09:34:40;;;;;;;2.08;1.32;;;;;;;15.37;56.96;98794.67;1665582;84;20982;-79
2022/09/19 09:37:28;;;;;;;4.03;1.20;;;;;;;15.29;56.52;98796.35;1635939;86;21034;-79
2022/09/19 09:43:10;;;;;;;3.62;1.20;;;;;;;15.26;57.58;98799.58;1671045;84;21073;-80
2022/09/19 09:45:45;;;;;;;3.30;1.15;;;;;;;15.28;58.23;98801.69;1669629;86;20978;-82
2022/09/19 09:48:34;;;;;;;3.45;1.30;;;;;;;15.30;57.84;98801.16;1673008;84;21010;-83
2022/09/19 09:51:32;;;;;;;2.58;1.00;;;;;;;15.37;58.00;98801.69;1669726;84;21922;-81
2022/09/19 09:57:36;;;;;;;1.75;1.00;;;;;;;15.40;58.08;98805.45;1673912;84;21050;-80
2022/09/19 10:03:38;;;;;;;3.45;0.95;;;;;;;15.50;56.81;98800.16;1666550;84;21062;-80
2022/09/19 10:06:42;;;;;;;2.98;1.30;;;;;;;15.56;55.96;98800.30;1670039;84;21025;-81
2022/09/19 10:09:27;;;;;;;1.00;0.90;;;;;;;15.63;55.94;98801.22;1648513;86;21002;-78
2022/09/19 10:12:26;;;;;;;7.28;1.10;;;;;;;15.69;55.54;98798.29;1672349;84;21054;-80
2022/09/19 10:14:58;;;;;;;1.98;1.15;;;;;;;15.75;53.76;98801.57;1670871;84;21085;-80
2022/09/19 10:17:32;;;;;;;3.65;1.75;;;;;;;15.85;55.52;98797.55;1665997;84;21038;-80
2022/09/19 10:20:04;;;;;;;0.82;0.70;;;;;;;15.89;54.88;98797.77;1670951;84;21450;-80
2022/09/19 10:22:31;;;;;;;1.65;0.80;;;;;;;15.87;53.95;98797.00;1650496;86;21545;-80
2022/09/19 10:25:09;;;;;;;1.50;0.90;;;;;;;15.99;54.66;98792.43;1670813;84;22068;-80
2022/09/19 10:27:41;;;;;;;3.10;1.10;;;;;;;16.00;52.99;98791.99;1654364;84;21033;-79
2022/09/19 10:30:20;;;;;;;2.70;1.20;;;;;;;16.04;53.74;98796.98;1663183;86;20987;-84
2022/09/19 10:32:49;;;;;;;2.22;1.10;;;;;;;16.10;54.25;98793.20;1643814;84;21030;-82
2022/09/19 10:35:36;;;;;;;4.53;1.55;;;;;;;16.12;53.00;98800.99;1657117;84;21053;-81
2022/09/19 10:38:13;;;;;;;4.20;0.90;;;;;;;16.16;53.88;98795.97;1642938;85;21021;-82
2022/09/19 10:41:00;;;;;;;1.67;0.93;;;;;;;16.10;53.61;98790.11;1640283;86;20981;-80
2022/09/19 10:43:32;;;;;;;1.05;0.85;;;;;;;16.14;54.23;98795.20;1639667;86;21004;-82
2022/09/19 10:46:06;;;;;;;2.95;0.98;;;;;;;16.16;53.81;98793.34;1621424;86;21552;-81
2022/09/19 10:48:37;;;;;;;1.95;1.00;;;;;;;16.09;53.70;98794.11;1639709;86;20997;-82
2022/09/19 10:51:12;;;;;;;1.67;1.00;;;;;;;16.16;54.16;98784.16;1639183;86;20962;-79
2022/09/19 10:53:43;;;;;;;3.45;1.20;;;;;;;16.19;53.98;98783.98;1642262;86;21034;-78
2022/09/19 10:56:26;;;;;;;4.62;1.07;;;;;;;16.25;53.98;98789.77;1642124;86;21003;-82
2022/09/19 10:59:00;;;;;;;;;;;;;;;16.26;53.72;98795.39;1643186;86;21561;-80
2022/09/19 11:01:27;;;;;;;1.98;1.15;;;;;;;16.30;52.30;98794.30;1643505;86;20499;-81
2022/09/19 11:04:06;;;;;;;2.10;1.00;;;;;;;16.34;52.96;98789.73;1642511;86;21037;-83
2022/09/19 11:06:35;;;;;;;1.85;1.00;;;;;;;16.28;50.28;98800.09;1644233;86;21025;-83
2022/09/19 11:09:06;;;;;;;1.70;1.00;;;;;;;16.21;51.64;98794.77;1641752;87;20966;-82
2022/09/19 11:11:48;;;;;;;5.50;1.32;;;;;;;16.26;51.76;98791.92;1634927;86;20949;-81
2022/09/19 11:14:31;;;;;;;2.22;1.10;;;;;;;16.32;53.30;98781.10;1636844;86;21025;-82
2022/09/19 11:17:30;;;;;;;2.17;1.20;;;;;;;16.39;52.68;98777.20;1645207;86;20981;-81
2022/09/19 11:20:37;;;;;;;3.08;0.90;;;;;;;16.51;52.76;98778.31;1636993;86;21005;-81
2022/09/19 11:23:23;;;;;;;3.30;1.90;;;;;;;16.45;51.54;98782.59;1635956;86;21088;-81
2022/09/19 11:26:06;;;;;;;1.60;1.20;;;;;;;16.57;50.78;98779.77;1639535;86;20972;-86
2022/09/19 11:29:20;;;;;;;6.10;1.10;;;;;;;16.52;50.52;98785.75;1645040;86;20996;-81
2022/09/19 11:32:21;;;;;;;3.45;1.32;;;;;;;16.46;50.56;98776.42;1643628;86;21023;-81
2022/09/19 11:35:27;;;;;;;2.85;0.95;;;;;;;16.45;50.80;98766.41;1637768;86;20977;-79
2022/09/19 11:38:06;;;;;;;4.35;1.00;;;;;;;16.49;50.85;98769.23;1657240;84;20979;-80
2022/09/19 11:41:15;;;;;;;2.22;1.12;;;;;;;16.32;50.68;98761.90;1668431;84;21007;-80
2022/09/19 11:44:14;;;;;;;2.10;1.20;;;;;;;16.34;51.24;98758.73;1649078;85;21029;-82
2022/09/19 11:47:05;;;;;;;5.37;1.05;;;;;;;16.36;51.62;98758.18;1657583;84;21046;-79
2022/09/19 11:49:56;;;;;;;4.08;1.00;;;;;;;16.35;51.55;98748.12;1644877;86;20982;-80
2022/09/19 11:52:34;;;;;;;4.50;1.10;;;;;;;16.35;51.89;98752.06;1665526;84;21030;-80
2022/09/19 11:55:32;;;;;;;4.50;1.35;;;;;;;16.32;50.51;98755.34;1664944;86;20991;-80
2022/09/19 11:58:31;;;;;;;5.30;1.22;;;;;;;16.29;50.74;98755.89;1640391;86;21026;-82
2022/09/19 12:01:23;;;;;;;4.28;1.40;;;;;;;16.27;50.43;98764.31;1666141;84;20969;-78
2022/09/19 12:04:13;;;;;;;4.42;1.60;;;;;;;16.23;51.31;98764.06;1665079;84;20993;-78
2022/09/19 12:07:25;;;;;;;2.50;1.07;;;;;;;16.25;51.76;98759.61;1665227;84;20989;-78
2022/09/19 12:10:12;;;;;;;7.15;1.35;;;;;;;16.20;51.98;98754.22;1666846;84;21486;-82
2022/09/19 12:12:43;;;;;;;4.92;1.32;;;;;;;16.20;52.04;98762.09;1670936;84;21021;-80
2022/09/19 12:15:28;;;;;;;1.85;1.20;;;;;;;16.18;52.26;98755.61;1668337;84;21017;-82
2022/09/19 12:18:07;;;;;;;5.55;1.40;;;;;;;16.15;51.88;98754.45;1670064;84;20981;-79
2022/09/19 12:20:45;;;;;;;4.67;1.20;;;;;;;16.22;52.53;98752.36;1644831;84;21050;-77
2022/09/19 12:26:34;;;;;;;1.77;1.00;;;;;;;16.27;52.18;98734.59;1668605;84;21050;-85
2022/09/19 12:29:19;;;;;;;1.17;0.85;;;;;;;16.24;50.35;98730.36;1668752;84;20986;-78
2022/09/19 12:31:53;;;;;;;1.12;0.75;;;;;;;16.30;51.53;98733.13;1670267;84;21014;-81
2022/09/19 12:34:35;;;;;;;2.02;0.80;;;;;;;16.37;50.54;98736.25;1672571;84;21548;-79
2022/09/19 12:37:25;;;;;;;1.45;1.00;;;;;;;16.43;51.75;98727.59;1665341;85;21146;-82